sensor_id;sensor_type;location;lat;lon;timestamp;pressure;altitude;pressure_sealevel;temperature;humidity
7746;BME280;3917;42.748;23.278;2022-09-17T15:50:49;94246.19;;;18.68;79.18
7746;BME280;3917;42.748;23.278;2022-09-17T15:53:21;94250.44;;;18.60;79.24
7746;BME280;3917;42.748;23.278;2022-09-17T15:56:00;94273.31;;;18.78;78.59
7746;BME280;3917;42.748;23.278;2022-09-17T15:58:29;94268.88;;;18.82;77.98
7746;BME280;3917;42.748;23.278;2022-09-17T16:04:26;94223.94;;;18.74;77.20
7746;BME280;3917;42.748;23.278;2022-09-17T16:07:00;94223.66;;;18.76;75.13
7746;BME280;3917;42.748;23.278;2022-09-17T16:09:45;94210.00;;;19.03;70.81
7746;BME280;3917;42.748;23.278;2022-09-17T16:12:15;94200.25;;;19.24;71.93
7746;BME280;3917;42.748;23.278;2022-09-17T16:14:43;94225.34;;;19.26;73.48
7746;BME280;3917;42.748;23.278;2022-09-17T16:17:40;94231.66;;;18.99;75.60
7746;BME280;3917;42.748;23.278;2022-09-17T16:20:13;94198.22;;;19.16;69.15
7746;BME280;3917;42.748;23.278;2022-09-17T16:22:43;94207.81;;;19.54;67.04
7746;BME280;3917;42.748;23.278;2022-09-17T16:25:12;94197.13;;;19.66;64.30
7746;BME280;3917;42.748;23.278;2022-09-17T16:27:45;94177.84;;;19.71;67.04
7746;BME280;3917;42.748;23.278;2022-09-17T16:30:15;94180.47;;;19.77;67.93
7746;BME280;3917;42.748;23.278;2022-09-17T16:32:43;94183.47;;;19.66;67.27
7746;BME280;3917;42.748;23.278;2022-09-17T16:35:12;94163.31;;;19.62;67.26
7746;BME280;3917;42.748;23.278;2022-09-17T16:37:39;94153.59;;;19.56;68.07
7746;BME280;3917;42.748;23.278;2022-09-17T16:40:11;94138.81;;;19.57;67.26
7746;BME280;3917;42.748;23.278;2022-09-17T16:42:38;94133.34;;;19.57;67.57
7746;BME280;3917;42.748;23.278;2022-09-17T16:45:06;94122.66;;;19.47;68.07
7746;BME280;3917;42.748;23.278;2022-09-17T16:47:34;94108.06;;;19.52;66.39
7746;BME280;3917;42.748;23.278;2022-09-17T16:50:04;94112.72;;;19.51;67.77
7746;BME280;3917;42.748;23.278;2022-09-17T16:52:31;94112.22;;;19.71;65.29
7746;BME280;3917;42.748;23.278;2022-09-17T16:54:58;94119.31;;;19.73;65.42
7746;BME280;3917;42.748;23.278;2022-09-17T16:57:26;94132.16;;;19.50;70.35
7746;BME280;3917;42.748;23.278;2022-09-17T16:59:53;94142.53;;;19.39;72.16
7746;BME280;3917;42.748;23.278;2022-09-17T17:02:20;94145.50;;;19.15;73.33
7746;BME280;3917;42.748;23.278;2022-09-17T17:04:47;94143.00;;;18.92;74.87
7746;BME280;3917;42.748;23.278;2022-09-17T17:07:14;94156.97;;;18.77;76.03
7746;BME280;3917;42.748;23.278;2022-09-17T17:09:40;94150.91;;;18.52;76.17
7746;BME280;3917;42.748;23.278;2022-09-17T17:12:12;94164.16;;;18.45;77.41
7746;BME280;3917;42.748;23.278;2022-09-17T17:14:40;94174.72;;;18.52;77.14
7746;BME280;3917;42.748;23.278;2022-09-17T17:17:08;94178.41;;;18.42;77.67
7746;BME280;3917;42.748;23.278;2022-09-17T17:19:35;94194.56;;;18.39;77.64
7746;BME280;3917;42.748;23.278;2022-09-17T17:22:02;94192.13;;;18.37;78.11
7746;BME280;3917;42.748;23.278;2022-09-17T17:24:29;94174.97;;;18.37;78.51
7746;BME280;3917;42.748;23.278;2022-09-17T17:26:55;94173.94;;;18.33;78.35
7746;BME280;3917;42.748;23.278;2022-09-17T17:29:22;94190.81;;;18.35;78.91
7746;BME280;3917;42.748;23.278;2022-09-17T17:31:50;94161.41;;;18.18;79.06
7746;BME280;3917;42.748;23.278;2022-09-17T17:34:17;94168.69;;;18.36;78.81
7746;BME280;3917;42.748;23.278;2022-09-17T17:36:44;94182.09;;;18.19;79.67
7746;BME280;3917;42.748;23.278;2022-09-17T17:39:13;94200.97;;;18.02;81.56
7746;BME280;3917;42.748;23.278;2022-09-17T17:41:40;94209.84;;;17.94;82.27
7746;BME280;3917;42.748;23.278;2022-09-17T17:44:08;94219.13;;;17.93;81.86
7746;BME280;3917;42.748;23.278;2022-09-17T17:46:37;94217.06;;;17.85;82.48
7746;BME280;3917;42.748;23.278;2022-09-17T17:49:05;94197.53;;;17.78;82.36
7746;BME280;3917;42.748;23.278;2022-09-17T17:51:34;94212.22;;;17.82;81.56
7746;BME280;3917;42.748;23.278;2022-09-17T17:54:01;94234.28;;;17.99;81.15
7746;BME280;3917;42.748;23.278;2022-09-17T17:56:28;94228.19;;;18.07;80.71
7746;BME280;3917;42.748;23.278;2022-09-17T17:58:56;94223.72;;;18.11;80.08
7746;BME280;3917;42.748;23.278;2022-09-17T18:01:25;94236.66;;;18.19;79.36
7746;BME280;3917;42.748;23.278;2022-09-17T18:03:55;94229.94;;;18.30;77.63
7746;BME280;3917;42.748;23.278;2022-09-17T18:06:25;94240.03;;;18.30;77.65
7746;BME280;3917;42.748;23.278;2022-09-17T18:08:53;94227.88;;;18.22;78.47
7746;BME280;3917;42.748;23.278;2022-09-17T18:11:20;94232.22;;;18.09;80.01
7746;BME280;3917;42.748;23.278;2022-09-17T18:13:50;94233.34;;;17.90;80.78
7746;BME280;3917;42.748;23.278;2022-09-17T18:16:17;94226.53;;;18.06;79.61
7746;BME280;3917;42.748;23.278;2022-09-17T18:18:44;94218.97;;;18.17;79.46
7746;BME280;3917;42.748;23.278;2022-09-17T18:21:13;94196.94;;;18.13;79.08
7746;BME280;3917;42.748;23.278;2022-09-17T18:23:46;94213.50;;;18.03;79.06
7746;BME280;3917;42.748;23.278;2022-09-17T18:26:27;94235.41;;;17.98;79.41
7746;BME280;3917;42.748;23.278;2022-09-17T18:28:55;94241.31;;;17.86;79.96
7746;BME280;3917;42.748;23.278;2022-09-17T18:31:23;94239.34;;;17.92;79.89
7746;BME280;3917;42.748;23.278;2022-09-17T18:33:54;94235.41;;;17.98;78.86
7746;BME280;3917;42.748;23.278;2022-09-17T18:36:22;94219.06;;;17.98;78.49
7746;BME280;3917;42.748;23.278;2022-09-17T18:38:52;94217.91;;;17.99;77.50
7746;BME280;3917;42.748;23.278;2022-09-17T18:41:21;94228.84;;;17.99;77.93
7746;BME280;3917;42.748;23.278;2022-09-17T18:43:51;94183.91;;;17.78;78.18
7746;BME280;3917;42.748;23.278;2022-09-17T18:46:17;94220.16;;;17.97;77.68
7746;BME280;3917;42.748;23.278;2022-09-17T18:48:44;94217.75;;;18.09;76.88
7746;BME280;3917;42.748;23.278;2022-09-17T18:51:12;94216.56;;;18.15;76.84
7746;BME280;3917;42.748;23.278;2022-09-17T18:53:40;94208.41;;;17.96;77.63
7746;BME280;3917;42.748;23.278;2022-09-17T18:56:12;94217.41;;;17.97;77.59
7746;BME280;3917;42.748;23.278;2022-09-17T18:58:40;94238.16;;;17.98;77.85
7746;BME280;3917;42.748;23.278;2022-09-17T19:01:07;94222.31;;;17.81;78.57
7746;BME280;3917;42.748;23.278;2022-09-17T19:03:36;94238.44;;;17.96;77.08
7746;BME280;3917;42.748;23.278;2022-09-17T19:06:07;94216.47;;;17.88;77.27
7746;BME280;3917;42.748;23.278;2022-09-17T19:08:34;94220.66;;;17.99;77.07
7746;BME280;3917;42.748;23.278;2022-09-17T19:11:02;94236.50;;;17.97;76.87
7746;BME280;3917;42.748;23.278;2022-09-17T19:13:35;94209.41;;;17.87;76.92
7746;BME280;3917;42.748;23.278;2022-09-17T19:16:03;94197.94;;;18.03;75.83
7746;BME280;3917;42.748;23.278;2022-09-17T19:18:40;94216.97;;;18.22;75.19
7746;BME280;3917;42.748;23.278;2022-09-17T19:21:09;94232.59;;;18.03;76.11
7746;BME280;3917;42.748;23.278;2022-09-17T19:23:39;94228.50;;;17.87;77.12
7746;BME280;3917;42.748;23.278;2022-09-17T19:26:07;94223.38;;;17.99;76.12
7746;BME280;3917;42.748;23.278;2022-09-17T19:28:35;94226.41;;;17.97;76.73
7746;BME280;3917;42.748;23.278;2022-09-17T19:31:03;94218.84;;;17.76;77.44
7746;BME280;3917;42.748;23.278;2022-09-17T19:33:30;94226.69;;;17.64;78.22
7746;BME280;3917;42.748;23.278;2022-09-17T19:35:58;94220.78;;;17.57;78.54
7746;BME280;3917;42.748;23.278;2022-09-17T19:38:25;94216.97;;;17.58;78.07
7746;BME280;3917;42.748;23.278;2022-09-17T19:40:56;94224.63;;;17.56;77.96
7746;BME280;3917;42.748;23.278;2022-09-17T19:43:24;94226.22;;;17.57;78.04
7746;BME280;3917;42.748;23.278;2022-09-17T19:45:59;94222.31;;;17.63;77.83
7746;BME280;3917;42.748;23.278;2022-09-17T19:48:25;94225.06;;;17.63;77.53
7746;BME280;3917;42.748;23.278;2022-09-17T19:50:52;94200.72;;;17.47;78.22
7746;BME280;3917;42.748;23.278;2022-09-17T19:53:20;94215.16;;;17.29;79.71
7746;BME280;3917;42.748;23.278;2022-09-17T19:55:47;94200.22;;;17.27;79.55
7746;BME280;3917;42.748;23.278;2022-09-17T19:58:14;94199.97;;;17.23;79.57
7746;BME280;3917;42.748;23.278;2022-09-17T20:00:41;94184.59;;;17.14;79.89
7746;BME280;3917;42.748;23.278;2022-09-17T20:03:09;94191.88;;;17.18;79.83
7746;BME280;3917;42.748;23.278;2022-09-17T20:05:36;94196.03;;;17.16;79.62
7746;BME280;3917;42.748;23.278;2022-09-17T20:08:03;94172.69;;;17.10;79.84
7746;BME280;3917;42.748;23.278;2022-09-17T20:10:33;94182.63;;;17.19;79.86
7746;BME280;3917;42.748;23.278;2022-09-17T20:13:01;94156.97;;;17.20;79.29
7746;BME280;3917;42.748;23.278;2022-09-17T20:15:28;94174.88;;;17.26;79.54
7746;BME280;3917;42.748;23.278;2022-09-17T20:17:54;94169.56;;;16.97;80.01
7746;BME280;3917;42.748;23.278;2022-09-17T20:20:23;94176.19;;;16.91;81.09
7746;BME280;3917;42.748;23.278;2022-09-17T20:22:53;94149.16;;;17.14;80.10
7746;BME280;3917;42.748;23.278;2022-09-17T20:25:19;94179.72;;;17.11;80.02
7746;BME280;3917;42.748;23.278;2022-09-17T20:27:48;94184.50;;;17.00;80.10
7746;BME280;3917;42.748;23.278;2022-09-17T20:30:15;94165.25;;;17.15;79.38
7746;BME280;3917;42.748;23.278;2022-09-17T20:32:42;94185.78;;;17.26;78.86
7746;BME280;3917;42.748;23.278;2022-09-17T20:35:08;94198.16;;;17.19;78.92
7746;BME280;3917;42.748;23.278;2022-09-17T20:37:37;94182.47;;;17.29;78.33
7746;BME280;3917;42.748;23.278;2022-09-17T20:40:04;94188.41;;;17.50;77.65
7746;BME280;3917;42.748;23.278;2022-09-17T20:42:31;94183.34;;;17.62;77.02
7746;BME280;3917;42.748;23.278;2022-09-17T20:44:58;94177.59;;;17.64;75.97
7746;BME280;3917;42.748;23.278;2022-09-17T20:47:25;94199.69;;;17.81;75.50
7746;BME280;3917;42.748;23.278;2022-09-17T20:49:52;94202.41;;;17.81;75.74
7746;BME280;3917;42.748;23.278;2022-09-17T20:52:19;94203.34;;;17.90;75.28
7746;BME280;3917;42.748;23.278;2022-09-17T20:54:50;94197.28;;;17.93;75.37
7746;BME280;3917;42.748;23.278;2022-09-17T20:57:17;94189.03;;;17.98;75.29
7746;BME280;3917;42.748;23.278;2022-09-17T20:59:44;94184.78;;;17.92;75.66
7746;BME280;3917;42.748;23.278;2022-09-17T21:02:18;94176.31;;;17.75;76.42
7746;BME280;3917;42.748;23.278;2022-09-17T21:04:46;94164.56;;;17.61;76.68
7746;BME280;3917;42.748;23.278;2022-09-17T21:07:14;94168.94;;;17.62;76.79
7746;BME280;3917;42.748;23.278;2022-09-17T21:09:40;94175.59;;;17.69;76.36
7746;BME280;3917;42.748;23.278;2022-09-17T21:12:09;94180.78;;;17.71;76.32
7746;BME280;3917;42.748;23.278;2022-09-17T21:14:36;94184.59;;;17.70;76.08
7746;BME280;3917;42.748;23.278;2022-09-17T21:17:03;94178.44;;;17.64;76.72
7746;BME280;3917;42.748;23.278;2022-09-17T21:19:31;94171.13;;;17.60;76.59
7746;BME280;3917;42.748;23.278;2022-09-17T21:21:57;94177.81;;;17.48;77.19
7746;BME280;3917;42.748;23.278;2022-09-17T21:24:24;94175.47;;;17.23;78.80
7746;BME280;3917;42.748;23.278;2022-09-17T21:26:51;94173.31;;;17.20;78.83
7746;BME280;3917;42.748;23.278;2022-09-17T21:29:20;94167.75;;;17.30;77.96
7746;BME280;3917;42.748;23.278;2022-09-17T21:31:46;94166.91;;;17.30;78.42
7746;BME280;3917;42.748;23.278;2022-09-17T21:34:13;94150.28;;;17.13;79.10
7746;BME280;3917;42.748;23.278;2022-09-17T21:36:41;94162.00;;;17.13;79.57
7746;BME280;3917;42.748;23.278;2022-09-17T21:39:11;94152.28;;;17.07;79.59
7746;BME280;3917;42.748;23.278;2022-09-17T21:41:38;94169.66;;;17.11;79.99
7746;BME280;3917;42.748;23.278;2022-09-17T21:44:06;94165.81;;;17.12;80.29
7746;BME280;3917;42.748;23.278;2022-09-17T21:46:35;94158.53;;;17.08;79.68
7746;BME280;3917;42.748;23.278;2022-09-17T21:49:03;94179.09;;;17.19;79.35
7746;BME280;3917;42.748;23.278;2022-09-17T21:51:31;94160.38;;;17.12;79.16
7746;BME280;3917;42.748;23.278;2022-09-17T21:54:01;94159.50;;;16.98;80.08
7746;BME280;3917;42.748;23.278;2022-09-17T21:56:29;94160.66;;;16.92;80.00
7746;BME280;3917;42.748;23.278;2022-09-17T21:58:59;94165.81;;;16.93;80.03
7746;BME280;3917;42.748;23.278;2022-09-17T22:01:27;94164.03;;;16.84;80.33
7746;BME280;3917;42.748;23.278;2022-09-17T22:03:58;94143.72;;;17.83;71.39
7746;BME280;3917;42.748;23.278;2022-09-17T22:06:27;94151.75;;;18.67;68.00
7746;BME280;3917;42.748;23.278;2022-09-17T22:08:55;94177.00;;;18.99;67.36
7746;BME280;3917;42.748;23.278;2022-09-17T22:11:24;94181.22;;;19.19;67.22
7746;BME280;3917;42.748;23.278;2022-09-17T22:13:55;94183.44;;;19.17;67.07
7746;BME280;3917;42.748;23.278;2022-09-17T22:16:23;94172.03;;;19.15;67.18
7746;BME280;3917;42.748;23.278;2022-09-17T22:18:52;94170.91;;;19.16;67.19
7746;BME280;3917;42.748;23.278;2022-09-17T22:21:21;94167.53;;;19.19;66.61
7746;BME280;3917;42.748;23.278;2022-09-17T22:23:49;94173.94;;;19.14;66.92
7746;BME280;3917;42.748;23.278;2022-09-17T22:26:17;94181.22;;;19.19;66.71
7746;BME280;3917;42.748;23.278;2022-09-17T22:28:45;94184.25;;;19.17;66.44
7746;BME280;3917;42.748;23.278;2022-09-17T22:31:12;94166.47;;;19.06;67.32
7746;BME280;3917;42.748;23.278;2022-09-17T22:33:41;94171.34;;;18.96;67.87
7746;BME280;3917;42.748;23.278;2022-09-17T22:36:10;94169.53;;;18.91;67.81
7746;BME280;3917;42.748;23.278;2022-09-17T22:38:39;94173.91;;;18.79;68.16
7746;BME280;3917;42.748;23.278;2022-09-17T22:41:08;94173.38;;;18.77;68.17
7746;BME280;3917;42.748;23.278;2022-09-17T22:43:35;94166.91;;;18.73;68.65
7746;BME280;3917;42.748;23.278;2022-09-17T22:46:09;94185.94;;;18.64;68.62
7746;BME280;3917;42.748;23.278;2022-09-17T22:48:35;94178.03;;;18.62;68.32
7746;BME280;3917;42.748;23.278;2022-09-17T22:51:02;94173.78;;;18.56;69.01
7746;BME280;3917;42.748;23.278;2022-09-17T22:53:29;94176.63;;;18.65;68.03
7746;BME280;3917;42.748;23.278;2022-09-17T22:55:57;94186.44;;;18.66;68.70
7746;BME280;3917;42.748;23.278;2022-09-17T22:58:25;94181.97;;;18.84;66.88
7746;BME280;3917;42.748;23.278;2022-09-17T23:00:53;94193.22;;;18.82;67.14
7746;BME280;3917;42.748;23.278;2022-09-17T23:03:20;94199.28;;;18.79;67.38
7746;BME280;3917;42.748;23.278;2022-09-17T23:05:47;94192.41;;;18.82;67.33
7746;BME280;3917;42.748;23.278;2022-09-17T23:08:14;94181.88;;;18.75;66.92
7746;BME280;3917;42.748;23.278;2022-09-17T23:10:41;94200.28;;;18.97;66.28
7746;BME280;3917;42.748;23.278;2022-09-17T23:13:10;94200.06;;;19.07;66.19
7746;BME280;3917;42.748;23.278;2022-09-17T23:15:37;94202.91;;;19.02;65.86
7746;BME280;3917;42.748;23.278;2022-09-17T23:18:04;94198.06;;;18.99;66.60
7746;BME280;3917;42.748;23.278;2022-09-17T23:20:32;94201.69;;;18.81;67.72
7746;BME280;3917;42.748;23.278;2022-09-17T23:22:58;94213.44;;;18.81;67.32
7746;BME280;3917;42.748;23.278;2022-09-17T23:25:25;94217.47;;;18.56;68.90
7746;BME280;3917;42.748;23.278;2022-09-17T23:27:53;94197.09;;;18.22;69.99
7746;BME280;3917;42.748;23.278;2022-09-17T23:30:21;94226.19;;;17.94;71.78
7746;BME280;3917;42.748;23.278;2022-09-17T23:32:51;94226.94;;;17.81;72.47
7746;BME280;3917;42.748;23.278;2022-09-17T23:35:18;94235.81;;;17.73;73.12
7746;BME280;3917;42.748;23.278;2022-09-17T23:37:45;94242.72;;;17.46;74.11
7746;BME280;3917;42.748;23.278;2022-09-17T23:40:12;94245.47;;;17.04;76.53
7746;BME280;3917;42.748;23.278;2022-09-17T23:42:39;94248.81;;;16.96;77.64
7746;BME280;3917;42.748;23.278;2022-09-17T23:45:07;94246.19;;;16.91;77.79
7746;BME280;3917;42.748;23.278;2022-09-17T23:47:37;94252.19;;;16.88;78.25
7746;BME280;3917;42.748;23.278;2022-09-17T23:50:05;94260.44;;;16.83;78.62
7746;BME280;3917;42.748;23.278;2022-09-17T23:52:32;94263.78;;;16.75;79.07
7746;BME280;3917;42.748;23.278;2022-09-17T23:54:58;94248.00;;;16.48;79.52
7746;BME280;3917;42.748;23.278;2022-09-17T23:57:25;94268.06;;;16.28;80.06
7746;BME280;3917;42.748;23.278;2022-09-17T23:59:53;94288.16;;;15.99;80.52
